Time;durP1;ratioP1;P1;durP2;ratioP2;P2;SDS_P1;SDS_P2;PMS_P1;PMS_P2;Temp;Humidity;BMP_temperature;BMP_pressure;BME280_temperature;BME280_humidity;BME280_pressure;Samples;Min_cycle;Max_cycle;Signal;HPM_P1;HPM_P2
2022/01/05 00:02:22;;;;;;;90.03;48.92;;;;;;;-144.47;100.00;61586.06;5033178;28;20044;-77
2022/01/05 00:04:47;;;;;;;84.80;49.58;;;;;;;-144.47;100.00;61586.06;5015378;28;20040;-78
2022/01/05 00:07:13;;;;;;;83.10;49.05;;;;;;;-144.47;100.00;61586.06;5014439;28;20055;-78
2022/01/05 00:09:39;;;;;;;90.20;50.00;;;;;;;-144.47;100.00;61586.06;5032348;28;20026;-78
2022/01/05 00:12:05;;;;;;;91.93;51.65;;;;;;;-144.47;100.00;61586.06;5032264;28;20030;-78
2022/01/05 00:14:30;;;;;;;89.18;48.28;;;;;;;-144.47;100.00;61586.06;4997762;28;20784;-78
2022/01/05 00:16:56;;;;;;;84.90;48.00;;;;;;;-144.47;100.00;61586.06;5032483;28;20061;-77
2022/01/05 00:19:23;;;;;;;87.22;48.67;;;;;;;-144.47;100.00;61586.06;5035416;28;20037;-78
2022/01/05 00:21:48;;;;;;;84.70;46.38;;;;;;;-144.47;100.00;61586.06;5031099;28;20021;-77
2022/01/05 00:24:14;;;;;;;89.53;48.55;;;;;;;-144.47;100.00;61586.06;5031885;28;20079;-77
2022/01/05 00:26:39;;;;;;;81.47;47.60;;;;;;;-144.47;100.00;61586.06;5032361;28;20112;-76
2022/01/05 00:29:05;;;;;;;84.22;48.25;;;;;;;-144.47;100.00;61586.06;5031940;28;20108;-75
2022/01/05 00:31:30;;;;;;;81.13;46.05;;;;;;;-144.47;100.00;61586.06;5032468;28;20104;-75
2022/01/05 00:33:56;;;;;;;82.00;47.55;;;;;;;-144.47;100.00;61586.06;5032098;28;20061;-77
2022/01/05 00:36:21;;;;;;;77.63;45.72;;;;;;;-144.47;100.00;61586.06;5032157;28;20116;-77
2022/01/05 00:38:48;;;;;;;76.68;45.97;;;;;;;-144.47;100.00;61586.06;5003419;28;20033;-76
2022/01/05 00:41:14;;;;;;;76.25;45.15;;;;;;;-144.47;100.00;61586.06;5023066;28;20120;-78
2022/01/05 00:43:40;;;;;;;72.32;44.50;;;;;;;-144.47;100.00;61586.06;5021189;28;20033;-77
2022/01/05 00:46:06;;;;;;;69.25;44.22;;;;;;;-144.47;100.00;61586.06;5021961;28;20030;-77
2022/01/05 00:48:34;;;;;;;70.65;44.90;;;;;;;-144.47;100.00;61586.06;5022359;28;20030;-76
2022/01/05 00:51:02;;;;;;;69.75;44.92;;;;;;;-144.47;100.00;61586.06;5029365;28;20033;-76
2022/01/05 00:53:28;;;;;;;72.72;44.97;;;;;;;-144.47;100.00;61586.06;5031779;28;20092;-75
2022/01/05 00:55:53;;;;;;;66.68;42.63;;;;;;;-144.47;100.00;61586.06;5031761;28;20033;-78
2022/01/05 00:58:19;;;;;;;74.47;45.63;;;;;;;-144.47;100.00;61586.06;5031692;28;20033;-76
2022/01/05 01:00:44;;;;;;;77.90;46.30;;;;;;;-144.47;100.00;61586.06;5014440;28;20061;-76
2022/01/05 01:03:10;;;;;;;71.13;43.30;;;;;;;-144.47;100.00;61586.06;5031443;28;20029;-77
2022/01/05 01:05:35;;;;;;;68.85;43.28;;;;;;;-144.47;100.00;61586.06;5031464;28;20108;-76
2022/01/05 01:08:01;;;;;;;75.28;45.47;;;;;;;-144.47;100.00;61586.06;5027679;28;20026;-77
2022/01/05 01:10:27;;;;;;;72.20;43.53;;;;;;;-144.47;100.00;61586.06;5029331;28;20075;-76
2022/01/05 01:12:53;;;;;;;74.03;43.25;;;;;;;-144.47;100.00;61586.06;5030228;28;20040;-77
2022/01/05 01:15:18;;;;;;;73.93;44.13;;;;;;;-144.47;100.00;61586.06;5031019;28;20037;-77
2022/01/05 01:17:44;;;;;;;74.07;42.88;;;;;;;-144.47;100.00;61586.06;5031710;28;20033;-77
2022/01/05 01:20:10;;;;;;;69.43;43.08;;;;;;;-144.47;100.00;61586.06;5034854;28;20120;-77
2022/01/05 01:22:36;;;;;;;71.30;42.00;;;;;;;-144.47;100.00;61586.06;5031394;28;20063;-77
2022/01/05 01:25:04;;;;;;;72.57;42.67;;;;;;;-144.47;100.00;61586.06;5031176;28;20033;-76
2022/01/05 01:27:30;;;;;;;68.25;42.78;;;;;;;-144.47;100.00;61586.06;5030971;28;20025;-77
2022/01/05 01:29:55;;;;;;;67.70;42.15;;;;;;;-144.47;100.00;61586.06;5030838;28;20466;-77
2022/01/05 01:32:21;;;;;;;70.00;40.50;;;;;;;-144.47;100.00;61586.06;5030617;28;20272;-77
2022/01/05 01:34:46;;;;;;;62.80;40.33;;;;;;;-144.47;100.00;61586.06;5030891;28;20025;-77
2022/01/05 01:37:12;;;;;;;66.32;41.58;;;;;;;-144.47;100.00;61586.06;5030366;28;20048;-76
2022/01/05 01:39:37;;;;;;;68.38;42.22;;;;;;;-144.47;100.00;61586.06;5013335;28;20040;-77
2022/01/05 01:42:03;;;;;;;68.40;41.60;;;;;;;-144.47;100.00;61586.06;5030724;28;20045;-77
2022/01/05 01:44:29;;;;;;;65.85;41.88;;;;;;;-144.47;100.00;61586.06;5030486;28;20040;-77
2022/01/05 01:46:54;;;;;;;73.22;41.50;;;;;;;-144.47;100.00;61586.06;5030726;28;20026;-76
2022/01/05 01:49:20;;;;;;;72.80;41.88;;;;;;;-144.47;100.00;61586.06;5034265;28;20055;-76
2022/01/05 01:51:45;;;;;;;65.28;40.08;;;;;;;-144.47;100.00;61586.06;5030937;28;20160;-75
2022/01/05 01:54:11;;;;;;;76.93;42.83;;;;;;;-144.47;100.00;61586.06;5028916;28;20465;-76
2022/01/05 01:56:38;;;;;;;74.78;44.05;;;;;;;-144.47;100.00;61586.06;5010817;28;20033;-76
2022/01/05 01:59:04;;;;;;;83.43;45.17;;;;;;;-144.47;100.00;61586.06;5027842;28;20152;-75
2022/01/05 02:01:30;;;;;;;77.68;43.72;;;;;;;-144.47;100.00;61586.06;5029718;28;20033;-77
2022/01/05 02:03:56;;;;;;;82.60;44.75;;;;;;;-144.47;100.00;61586.06;5029814;28;20056;-77
2022/01/05 02:06:21;;;;;;;81.93;44.55;;;;;;;-144.47;100.00;61586.06;5030147;28;20037;-76
2022/01/05 02:08:48;;;;;;;78.45;44.75;;;;;;;-144.47;100.00;61586.06;5030662;28;20037;-77
2022/01/05 02:11:13;;;;;;;79.47;45.08;;;;;;;-144.47;100.00;61586.06;5030212;28;20350;-76
2022/01/05 02:13:40;;;;;;;84.05;45.78;;;;;;;-144.47;100.00;61586.06;5030464;28;20120;-77
2022/01/05 02:16:06;;;;;;;80.45;46.15;;;;;;;-144.47;100.00;61586.06;5030031;28;20037;-77
2022/01/05 02:20:59;;;;;;;83.80;44.67;;;;;;;-144.47;100.00;61586.06;5030259;28;20026;-77
2022/01/05 02:23:25;;;;;;;89.50;46.80;;;;;;;-144.47;100.00;61586.06;5030407;28;20029;-77
2022/01/05 02:25:51;;;;;;;77.15;43.90;;;;;;;-144.47;100.00;61586.06;5012644;28;20125;-76
2022/01/05 02:28:16;;;;;;;83.57;44.22;;;;;;;-144.47;100.00;61586.06;5030230;28;20394;-76
2022/01/05 02:30:42;;;;;;;85.85;44.70;;;;;;;-144.47;100.00;61586.06;5012875;28;20084;-77
2022/01/05 02:33:08;;;;;;;84.18;46.35;;;;;;;-144.47;100.00;61586.06;5030065;28;20038;-77
2022/01/05 02:35:34;;;;;;;83.35;45.63;;;;;;;-144.47;100.00;61586.06;5031560;28;20038;-76
2022/01/05 02:38:00;;;;;;;76.10;44.50;;;;;;;-144.47;100.00;61586.06;5031350;28;20022;-77
2022/01/05 02:40:26;;;;;;;76.88;44.85;;;;;;;-144.47;100.00;61586.06;5032508;28;20097;-76
2022/01/05 02:42:54;;;;;;;78.90;46.10;;;;;;;-144.47;100.00;61586.06;5036591;28;20037;-76
2022/01/05 02:45:21;;;;;;;80.93;45.80;;;;;;;-144.47;100.00;61586.06;5027512;28;20037;-76
2022/01/05 02:47:47;;;;;;;82.25;45.97;;;;;;;-144.47;100.00;61586.06;5044849;28;20037;-75
2022/01/05 02:50:12;;;;;;;75.68;44.58;;;;;;;-144.47;100.00;61586.06;5038788;28;20053;-76
2022/01/05 02:52:38;;;;;;;76.07;45.80;;;;;;;-144.47;100.00;61586.06;5026048;28;20026;-76
2022/01/05 02:55:05;;;;;;;73.13;43.67;;;;;;;-144.47;100.00;61586.06;5025773;28;20049;-77
2022/01/05 02:57:31;;;;;;;72.78;43.83;;;;;;;-144.47;100.00;61586.06;5030301;28;20033;-77
2022/01/05 02:59:57;;;;;;;74.30;43.95;;;;;;;-144.47;100.00;61586.06;5026037;28;20046;-77
2022/01/05 03:02:23;;;;;;;74.05;41.85;;;;;;;-144.47;100.00;61586.06;5025629;28;20105;-75
2022/01/05 03:04:48;;;;;;;70.38;42.15;;;;;;;-144.47;100.00;61586.06;5022265;28;20137;-75
2022/01/05 03:07:16;;;;;;;67.45;41.17;;;;;;;-144.47;100.00;61586.06;5033101;28;20037;-77
2022/01/05 03:09:41;;;;;;;67.13;41.28;;;;;;;-144.47;100.00;61586.06;5032333;28;20041;-77
2022/01/05 03:12:07;;;;;;;69.18;40.35;;;;;;;-144.47;100.00;61586.06;5032085;28;20539;-77
2022/01/05 03:14:34;;;;;;;68.05;40.33;;;;;;;-144.47;100.00;61586.06;5033229;28;20482;-77
2022/01/05 03:17:00;;;;;;;68.28;41.70;;;;;;;-144.47;100.00;61586.06;5033211;28;20485;-78
2022/01/05 03:19:26;;;;;;;65.55;42.00;;;;;;;-144.47;100.00;61586.06;5033684;28;20052;-75
2022/01/05 03:21:52;;;;;;;62.50;39.85;;;;;;;-144.47;100.00;61586.06;5033228;28;20065;-78
2022/01/05 03:24:18;;;;;;;62.40;40.72;;;;;;;-144.47;100.00;61586.06;5025071;28;20044;-78
2022/01/05 03:26:45;;;;;;;60.30;40.45;;;;;;;-144.47;100.00;61586.06;5007293;28;20064;-77
2022/01/05 03:29:10;;;;;;;63.70;40.03;;;;;;;-144.47;100.00;61586.06;5022523;28;20041;-77
2022/01/05 03:31:36;;;;;;;60.65;39.45;;;;;;;-144.47;100.00;61586.06;5006293;28;20374;-77
2022/01/05 03:34:04;;;;;;;62.83;40.42;;;;;;;-144.47;100.00;61586.06;5014764;28;20103;-77
2022/01/05 03:36:29;;;;;;;60.50;39.65;;;;;;;-144.47;100.00;61586.06;5033334;28;20034;-76
2022/01/05 03:38:55;;;;;;;62.95;41.75;;;;;;;-144.47;100.00;61586.06;5015504;28;20041;-77
2022/01/05 03:41:20;;;;;;;65.10;41.20;;;;;;;-144.47;100.00;61586.06;5032820;28;20575;-77
2022/01/05 03:43:46;;;;;;;60.13;40.45;;;;;;;-144.47;100.00;61586.06;5032997;28;20025;-78
2022/01/05 03:46:11;;;;;;;65.60;42.15;;;;;;;-144.47;100.00;61586.06;5032678;28;20037;-77
2022/01/05 03:48:37;;;;;;;67.78;43.53;;;;;;;-144.47;100.00;61586.06;5032803;28;20057;-78
2022/01/05 03:51:02;;;;;;;67.20;42.58;;;;;;;-144.47;100.00;61586.06;5032250;28;20397;-77
2022/01/05 03:53:27;;;;;;;69.13;43.72;;;;;;;-144.47;100.00;61586.06;5032663;28;20036;-76
2022/01/05 03:55:53;;;;;;;70.88;43.08;;;;;;;-144.47;100.00;61586.06;5032728;28;20449;-77
2022/01/05 03:58:18;;;;;;;77.70;46.40;;;;;;;-144.47;100.00;61586.06;5032570;28;20040;-78
2022/01/05 04:00:50;;;;;;;74.20;45.58;;;;;;;-144.47;100.00;61586.06;5032658;28;20079;-78
2022/01/05 04:03:16;;;;;;;72.68;44.13;;;;;;;-144.47;100.00;61586.06;5032546;28;20072;-78
2022/01/05 04:05:41;;;;;;;93.07;45.13;;;;;;;-144.47;100.00;61586.06;5014916;28;20098;-77
2022/01/05 04:08:08;;;;;;;73.88;42.72;;;;;;;-144.47;100.00;61586.06;5032924;28;20034;-78
2022/01/05 04:10:34;;;;;;;71.00;44.17;;;;;;;-144.47;100.00;61586.06;5032518;28;20030;-75
2022/01/05 04:13:00;;;;;;;74.75;43.70;;;;;;;-144.47;100.00;61586.06;5032193;28;20426;-78
2022/01/05 04:15:26;;;;;;;73.38;44.38;;;;;;;-144.47;100.00;61586.06;5032426;28;20475;-78
2022/01/05 04:17:51;;;;;;;73.03;45.20;;;;;;;-144.47;100.00;61586.06;5032779;28;20044;-78
2022/01/05 04:20:17;;;;;;;75.88;44.70;;;;;;;-144.47;100.00;61586.06;5031856;28;20401;-77
2022/01/05 04:22:43;;;;;;;76.03;44.78;;;;;;;-144.47;100.00;61586.06;5014500;28;20042;-77
2022/01/05 04:25:10;;;;;;;73.80;43.55;;;;;;;-144.47;100.00;61586.06;5031729;28;20037;-77
2022/01/05 04:27:35;;;;;;;75.22;45.85;;;;;;;-144.47;100.00;61586.06;5014456;28;20386;-78
2022/01/05 04:30:02;;;;;;;73.85;44.67;;;;;;;-144.47;100.00;61586.06;5031815;28;20037;-77
2022/01/05 04:32:27;;;;;;;73.43;46.17;;;;;;;-144.47;100.00;61586.06;5032219;28;20101;-76
2022/01/05 04:34:53;;;;;;;67.97;43.33;;;;;;;-144.47;100.00;61586.06;5032755;28;20089;-79
2022/01/05 04:37:19;;;;;;;70.85;45.83;;;;;;;-144.47;100.00;61586.06;5031364;28;20040;-78
2022/01/05 04:39:46;;;;;;;70.25;45.80;;;;;;;-144.47;100.00;61586.06;5032070;28;20036;-77
2022/01/05 04:42:11;;;;;;;68.68;44.60;;;;;;;-144.47;100.00;61586.06;5013786;28;20144;-78
2022/01/05 04:44:37;;;;;;;71.68;46.78;;;;;;;-144.47;100.00;61586.06;5031841;28;20120;-78
2022/01/05 04:47:03;;;;;;;69.72;45.03;;;;;;;-144.47;100.00;61586.06;5031443;28;20056;-77
2022/01/05 04:49:28;;;;;;;72.90;47.08;;;;;;;-144.47;100.00;61586.06;5031867;28;20498;-76
2022/01/05 04:51:54;;;;;;;75.65;48.30;;;;;;;-144.47;100.00;61586.06;5031351;28;20056;-77
2022/01/05 04:54:20;;;;;;;67.60;45.67;;;;;;;-144.47;100.00;61586.06;5031333;28;20056;-78
2022/01/05 04:56:46;;;;;;;75.47;47.58;;;;;;;-144.47;100.00;61586.06;5031479;28;20029;-77
2022/01/05 04:59:12;;;;;;;70.57;46.47;;;;;;;-144.47;100.00;61586.06;5031485;28;20087;-78
2022/01/05 05:01:37;;;;;;;77.28;47.17;;;;;;;-144.47;100.00;61586.06;5031574;28;20025;-77
2022/01/05 05:04:05;;;;;;;73.25;46.53;;;;;;;-144.47;100.00;61586.06;5031297;28;20037;-77
2022/01/05 05:06:30;;;;;;;74.38;47.15;;;;;;;-144.47;100.00;61586.06;5031314;28;20240;-76
2022/01/05 05:08:56;;;;;;;71.75;46.45;;;;;;;-144.47;100.00;61586.06;5032278;28;20034;-77
2022/01/05 05:11:21;;;;;;;79.35;48.05;;;;;;;-144.47;100.00;61586.06;5031446;28;20036;-78
2022/01/05 05:13:46;;;;;;;73.47;46.10;;;;;;;-144.47;100.00;61586.06;5031318;28;20056;-77
2022/01/05 05:16:12;;;;;;;73.45;45.25;;;;;;;-144.47;100.00;61586.06;5030998;28;20055;-77
2022/01/05 05:18:37;;;;;;;73.85;46.80;;;;;;;-144.47;100.00;61586.06;5031569;28;20034;-77
2022/01/05 05:21:03;;;;;;;68.03;46.25;;;;;;;-144.47;100.00;61586.06;5030774;28;20068;-76
2022/01/05 05:23:29;;;;;;;67.05;44.72;;;;;;;-144.47;100.00;61586.06;5031100;28;20030;-76
2022/01/05 05:25:54;;;;;;;68.43;44.83;;;;;;;-144.47;100.00;61586.06;5031245;28;20059;-76
2022/01/05 05:28:20;;;;;;;70.72;44.70;;;;;;;-144.47;100.00;61586.06;5032535;28;20044;-76
2022/01/05 05:30:46;;;;;;;71.32;46.13;;;;;;;-144.47;100.00;61586.06;5034390;28;20022;-76
2022/01/05 05:33:11;;;;;;;70.03;44.67;;;;;;;-144.47;100.00;61586.06;5034070;28;20087;-76
2022/01/05 05:35:39;;;;;;;72.65;46.55;;;;;;;-144.47;100.00;61586.06;5033295;28;20033;-76
2022/01/05 05:38:05;;;;;;;70.80;45.88;;;;;;;-144.47;100.00;61586.06;5032635;28;20045;-76
2022/01/05 05:40:31;;;;;;;72.05;45.45;;;;;;;-144.47;100.00;61586.06;5033752;28;20052;-76
2022/01/05 05:42:56;;;;;;;70.45;45.20;;;;;;;-144.47;100.00;61586.06;5033965;28;20033;-77
2022/01/05 05:45:22;;;;;;;73.65;48.28;;;;;;;-144.47;100.00;61586.06;5033931;28;20512;-77
2022/01/05 05:47:47;;;;;;;74.47;46.15;;;;;;;-144.47;100.00;61586.06;5032971;28;20358;-77
2022/01/05 05:50:13;;;;;;;78.85;48.88;;;;;;;-144.47;100.00;61586.06;5034340;28;20037;-78
2022/01/05 05:52:38;;;;;;;80.15;49.55;;;;;;;-144.47;100.00;61586.06;5033263;28;20030;-78
2022/01/05 05:55:04;;;;;;;73.18;47.35;;;;;;;-144.47;100.00;61586.06;5032957;28;20038;-77
2022/01/05 05:57:29;;;;;;;79.13;49.45;;;;;;;-144.47;100.00;61586.06;5032898;28;20339;-77
2022/01/05 05:59:55;;;;;;;79.40;49.30;;;;;;;-144.47;100.00;61586.06;5031094;28;20157;-77
2022/01/05 06:02:20;;;;;;;74.47;48.13;;;;;;;-144.47;100.00;61586.06;5030588;28;20055;-77
2022/01/05 06:04:46;;;;;;;79.50;48.95;;;;;;;-144.47;100.00;61586.06;5030793;28;20072;-76
2022/01/05 06:07:12;;;;;;;85.20;52.90;;;;;;;-144.47;100.00;61586.06;5030772;28;20472;-76
2022/01/05 06:09:37;;;;;;;85.80;50.70;;;;;;;-144.47;100.00;61586.06;5030624;28;20029;-77
2022/01/05 06:12:03;;;;;;;81.93;49.95;;;;;;;-144.47;100.00;61586.06;5030276;28;20097;-76
2022/01/05 06:14:29;;;;;;;84.03;52.03;;;;;;;-144.47;100.00;61586.06;5030308;28;20129;-75
2022/01/05 06:16:56;;;;;;;82.80;51.30;;;;;;;-144.47;100.00;61586.06;5031950;28;20080;-76
2022/01/05 06:19:21;;;;;;;81.63;48.78;;;;;;;-144.47;100.00;61586.06;5030723;28;20271;-76
2022/01/05 06:21:47;;;;;;;84.55;49.63;;;;;;;-144.47;100.00;61586.06;5031287;28;20067;-77
2022/01/05 06:24:13;;;;;;;85.53;51.90;;;;;;;-144.47;100.00;61586.06;5030523;28;20041;-77
2022/01/05 06:26:38;;;;;;;84.13;50.47;;;;;;;-144.47;100.00;61586.06;5030806;28;20033;-75
2022/01/05 06:29:04;;;;;;;85.82;50.35;;;;;;;-144.47;100.00;61586.06;5030741;28;20044;-76
2022/01/05 06:31:30;;;;;;;86.05;51.15;;;;;;;-144.47;100.00;61586.06;5030737;28;20070;-75
2022/01/05 06:33:56;;;;;;;81.55;50.17;;;;;;;-144.47;100.00;61586.06;5030937;28;20022;-76
2022/01/05 06:36:21;;;;;;;78.15;48.60;;;;;;;-144.47;100.00;61586.06;5031202;28;20520;-76
2022/01/05 06:38:46;;;;;;;84.05;50.70;;;;;;;-144.47;100.00;61586.06;5032542;28;20038;-76
2022/01/05 06:41:12;;;;;;;77.55;49.28;;;;;;;-144.47;100.00;61586.06;5018092;28;20034;-76
2022/01/05 06:43:37;;;;;;;80.78;50.45;;;;;;;-144.47;100.00;61586.06;5038765;28;20474;-77
2022/01/05 06:46:03;;;;;;;76.95;49.35;;;;;;;-144.47;100.00;61586.06;5037757;28;20041;-77
2022/01/05 06:48:28;;;;;;;82.50;49.33;;;;;;;-144.47;100.00;61586.06;5033324;28;20037;-77
2022/01/05 06:50:55;;;;;;;84.35;50.42;;;;;;;-144.47;100.00;61586.06;5014581;28;20025;-77
2022/01/05 06:53:21;;;;;;;83.15;50.45;;;;;;;-144.47;100.00;61586.06;5030584;28;20124;-77
2022/01/05 06:55:47;;;;;;;80.28;48.78;;;;;;;-144.47;100.00;61586.06;5030137;28;20116;-77
2022/01/05 06:58:12;;;;;;;80.70;50.05;;;;;;;-144.47;100.00;61586.06;5029947;28;20041;-78
2022/01/05 07:00:38;;;;;;;77.47;47.83;;;;;;;-144.47;100.00;61586.06;5012034;28;20453;-77
2022/01/05 07:03:04;;;;;;;80.50;48.22;;;;;;;-144.47;100.00;61586.06;5030011;28;20512;-78
2022/01/05 07:05:31;;;;;;;73.53;47.25;;;;;;;-144.47;100.00;61586.06;5030581;28;20117;-77
2022/01/05 07:07:57;;;;;;;77.30;48.17;;;;;;;-144.47;100.00;61586.06;5030137;28;20037;-77
2022/01/05 07:10:23;;;;;;;74.85;45.75;;;;;;;-144.47;100.00;61586.06;5030019;28;20486;-76
2022/01/05 07:12:49;;;;;;;77.30;48.08;;;;;;;-144.47;100.00;61586.06;5030281;28;20022;-78
2022/01/05 07:15:15;;;;;;;77.43;46.85;;;;;;;-144.47;100.00;61586.06;5031017;28;20433;-79
2022/01/05 07:17:41;;;;;;;79.60;46.72;;;;;;;-144.47;100.00;61586.06;5030196;28;20083;-78
2022/01/05 07:20:08;;;;;;;73.72;44.83;;;;;;;-144.47;100.00;61586.06;5029297;28;20422;-82
2022/01/05 07:22:34;;;;;;;79.60;47.67;;;;;;;-144.47;100.00;61586.06;5030635;28;20470;-81
2022/01/05 07:24:59;;;;;;;79.00;48.40;;;;;;;-144.47;100.00;61586.06;5029953;28;20049;-81
2022/01/05 07:27:25;;;;;;;85.47;49.92;;;;;;;-144.47;100.00;61586.06;5012371;28;20029;-82
2022/01/05 07:29:50;;;;;;;77.80;47.10;;;;;;;-144.47;100.00;61586.06;5032135;28;20030;-82
2022/01/05 07:32:16;;;;;;;79.03;49.08;;;;;;;-144.47;100.00;61586.06;5033044;28;20373;-82
2022/01/05 07:34:41;;;;;;;76.40;46.30;;;;;;;-144.47;100.00;61586.06;5033252;28;20462;-82
2022/01/05 07:37:07;;;;;;;78.53;47.08;;;;;;;-144.47;100.00;61586.06;5033601;28;20044;-82
2022/01/05 07:39:33;;;;;;;78.28;47.88;;;;;;;-144.47;100.00;61586.06;5034540;28;20025;-82
2022/01/05 07:41:58;;;;;;;79.45;46.75;;;;;;;-144.47;100.00;61586.06;4944195;28;20065;-82
2022/01/05 07:44:25;;;;;;;78.68;46.25;;;;;;;-144.47;100.00;61586.06;5021932;28;20040;-82
2022/01/05 07:46:50;;;;;;;77.72;47.03;;;;;;;-144.47;100.00;61586.06;5025895;28;20363;-82
2022/01/05 07:49:15;;;;;;;75.82;45.92;;;;;;;-144.47;100.00;61586.06;5023436;28;20041;-78
2022/01/05 07:51:41;;;;;;;73.28;44.35;;;;;;;-144.47;100.00;61586.06;5030584;28;20140;-79
2022/01/05 07:54:07;;;;;;;79.22;46.40;;;;;;;-144.47;100.00;61586.06;5025640;28;20041;-78
2022/01/05 07:56:33;;;;;;;82.30;47.05;;;;;;;-144.47;100.00;61586.06;5027548;28;20116;-78
2022/01/05 07:58:58;;;;;;;73.38;45.78;;;;;;;-144.47;100.00;61586.06;5025241;28;20068;-78
2022/01/05 08:01:24;;;;;;;68.10;43.22;;;;;;;-144.47;100.00;61586.06;5017175;28;20081;-78
2022/01/05 08:03:50;;;;;;;58.03;37.67;;;;;;;-144.47;100.00;61586.06;5021494;28;20057;-78
2022/01/05 08:06:17;;;;;;;57.45;39.10;;;;;;;-144.47;100.00;61586.06;5028066;28;20143;-79
2022/01/05 08:08:44;;;;;;;54.65;35.35;;;;;;;-144.47;100.00;61586.06;5009297;28;20041;-77
2022/01/05 08:11:11;;;;;;;52.10;34.80;;;;;;;-144.47;100.00;61586.06;5024496;28;20029;-79
2022/01/05 08:13:36;;;;;;;50.03;33.38;;;;;;;-144.47;100.00;61586.06;5025883;28;20143;-80
2022/01/05 08:16:02;;;;;;;47.90;32.22;;;;;;;-144.47;100.00;61586.06;5032684;28;20045;-80
2022/01/05 08:18:28;;;;;;;46.63;29.50;;;;;;;-144.47;100.00;61586.06;5032299;28;20079;-79
2022/01/05 08:20:54;;;;;;;38.38;28.05;;;;;;;-144.47;100.00;61586.06;5028150;28;20033;-80
2022/01/05 08:23:22;;;;;;;39.78;28.33;;;;;;;-144.47;100.00;61586.06;5016720;28;20076;-79
2022/01/05 08:25:50;;;;;;;45.60;29.63;;;;;;;-144.47;100.00;61586.06;5020106;28;20041;-80
2022/01/05 08:28:16;;;;;;;45.25;31.08;;;;;;;-144.47;100.00;61586.06;5023719;28;20549;-79
2022/01/05 08:30:45;;;;;;;44.63;31.30;;;;;;;-144.47;100.00;61586.06;5019589;28;20352;-80
2022/01/05 08:33:12;;;;;;;43.20;29.42;;;;;;;-144.47;100.00;61586.06;5020505;28;20912;-78
2022/01/05 08:35:38;;;;;;;41.90;28.45;;;;;;;-144.47;100.00;61586.06;5019301;28;20443;-78
2022/01/05 08:38:05;;;;;;;43.13;29.73;;;;;;;-144.47;100.00;61586.06;5020458;28;20057;-78
2022/01/05 08:40:32;;;;;;;45.55;31.10;;;;;;;-144.47;100.00;61586.06;5022516;28;20360;-76
2022/01/05 08:42:58;;;;;;;52.00;34.25;;;;;;;-144.47;100.00;61586.06;5019328;28;20049;-75
2022/01/05 08:45:25;;;;;;;53.33;35.53;;;;;;;-144.47;100.00;61586.06;5016943;28;20112;-78
2022/01/05 08:47:52;;;;;;;50.90;34.70;;;;;;;-144.47;100.00;61586.06;5019038;28;20040;-76
2022/01/05 08:50:21;;;;;;;55.42;36.58;;;;;;;-144.47;100.00;61586.06;5023235;28;20049;-78
2022/01/05 08:52:47;;;;;;;50.80;35.50;;;;;;;-144.47;100.00;61586.06;5019143;28;20037;-79
2022/01/05 08:55:14;;;;;;;55.15;37.08;;;;;;;-144.47;100.00;61586.06;5023861;28;20022;-76
2022/01/05 08:57:40;;;;;;;53.72;35.47;;;;;;;-144.47;100.00;61586.06;5018677;28;20053;-79
2022/01/05 09:00:09;;;;;;;53.13;36.72;;;;;;;-144.47;100.00;61586.06;5023146;28;20121;-80
2022/01/05 09:02:34;;;;;;;55.30;35.72;;;;;;;-144.47;100.00;61586.06;5015775;28;20030;-78
2022/01/05 09:05:00;;;;;;;54.35;37.17;;;;;;;-144.47;100.00;61586.06;4998432;28;20048;-78
2022/01/05 09:07:26;;;;;;;57.08;38.58;;;;;;;-144.47;100.00;61586.06;5022868;28;20025;-79
2022/01/05 09:09:51;;;;;;;54.20;34.58;;;;;;;-144.47;100.00;61586.06;5018437;28;20025;-79
2022/01/05 09:12:17;;;;;;;55.50;38.55;;;;;;;-144.47;100.00;61586.06;5007533;28;20406;-81
2022/01/05 09:14:43;;;;;;;57.72;36.72;;;;;;;-144.47;100.00;61586.06;5018488;28;20064;-78
2022/01/05 09:17:09;;;;;;;58.50;37.67;;;;;;;-144.47;100.00;61586.06;5024832;28;20041;-79
2022/01/05 09:19:35;;;;;;;57.20;36.05;;;;;;;-144.47;100.00;61586.06;5017393;28;20061;-79
2022/01/05 09:22:01;;;;;;;65.95;40.20;;;;;;;-144.47;100.00;61586.06;5025442;28;20116;-80
2022/01/05 09:24:27;;;;;;;60.22;38.20;;;;;;;-144.47;100.00;61586.06;5015710;28;20042;-78
2022/01/05 09:26:56;;;;;;;62.88;39.72;;;;;;;-144.47;100.00;61586.06;5005477;28;20038;-80
2022/01/05 09:29:23;;;;;;;62.45;39.05;;;;;;;-144.47;100.00;61586.06;5019111;28;20481;-76
2022/01/05 09:31:49;;;;;;;64.15;39.38;;;;;;;-144.47;100.00;61586.06;5019139;28;20052;-77
2022/01/05 09:34:14;;;;;;;61.63;40.80;;;;;;;-144.47;100.00;61586.06;5027986;28;20041;-74
2022/01/05 09:36:47;;;;;;;63.83;40.15;;;;;;;-144.47;100.00;61586.06;5020879;28;20044;-78
2022/01/05 09:41:56;;;;;;;66.68;38.72;;;;;;;-144.47;100.00;61586.06;5021796;28;20033;-79
2022/01/05 09:44:38;;;;;;;62.15;37.95;;;;;;;-144.47;100.00;61586.06;5022734;28;20069;-78
2022/01/05 09:47:31;;;;;;;56.58;37.30;;;;;;;-144.47;100.00;61586.06;5018294;28;20068;-82
2022/01/05 09:50:07;;;;;;;60.70;36.38;;;;;;;-144.47;100.00;61586.06;5025701;28;20093;-83
2022/01/05 09:52:34;;;;;;;56.90;35.55;;;;;;;-144.47;100.00;61586.06;5004003;28;20120;-81
2022/01/05 09:55:01;;;;;;;60.05;35.83;;;;;;;-144.47;100.00;61586.06;5038182;28;20421;-79
2022/01/05 09:57:29;;;;;;;57.92;34.45;;;;;;;-144.47;100.00;61586.06;5037090;28;20025;-80
2022/01/05 09:59:56;;;;;;;55.55;35.33;;;;;;;-144.47;100.00;61586.06;5017195;28;20544;-82
2022/01/05 10:02:22;;;;;;;59.63;36.67;;;;;;;-144.47;100.00;61586.06;5033002;28;20116;-85
2022/01/05 10:04:47;;;;;;;60.50;34.95;;;;;;;-144.47;100.00;61586.06;5033641;28;20064;-83
2022/01/05 10:07:14;;;;;;;61.10;34.78;;;;;;;-144.47;100.00;61586.06;5033237;28;20037;-84
2022/01/05 10:09:43;;;;;;;60.83;33.75;;;;;;;-144.47;100.00;61586.06;5008297;28;20065;-85
2022/01/05 10:12:10;;;;;;;61.85;36.28;;;;;;;-144.47;100.00;61586.06;5005333;28;20453;-82
2022/01/05 10:14:47;;;;;;;58.35;34.00;;;;;;;-144.47;100.00;61586.06;5025035;28;20038;-81
2022/01/05 10:17:28;;;;;;;62.75;34.85;;;;;;;-144.47;100.00;61586.06;5022923;28;20037;-83
2022/01/05 10:20:01;;;;;;;58.17;33.85;;;;;;;-144.47;100.00;61586.06;5024555;28;20044;-86
2022/01/05 10:22:33;;;;;;;63.20;34.60;;;;;;;-144.47;100.00;61586.06;5025254;28;20364;-83
2022/01/05 10:25:02;;;;;;;58.35;31.60;;;;;;;-144.47;100.00;61586.06;5007883;28;20080;-87
2022/01/05 10:27:28;;;;;;;57.22;32.33;;;;;;;-144.47;100.00;61586.06;5009281;28;20061;-78
2022/01/05 10:29:56;;;;;;;55.13;32.58;;;;;;;-144.47;100.00;61586.06;5023094;28;20037;-83
2022/01/05 10:32:23;;;;;;;54.50;31.45;;;;;;;-144.47;100.00;61586.06;5026136;28;20441;-88
2022/01/05 10:35:07;;;;;;;55.50;31.80;;;;;;;-144.47;100.00;61586.06;4998984;28;20379;-87
2022/01/05 10:37:34;;;;;;;58.45;33.40;;;;;;;-144.47;100.00;61586.06;5023880;28;20092;-86
2022/01/05 10:40:07;;;;;;;56.45;32.67;;;;;;;-144.47;100.00;61586.06;5028907;28;20097;-88
2022/01/05 10:42:36;;;;;;;50.45;30.02;;;;;;;-144.47;100.00;61586.06;5037187;28;20036;-84
2022/01/05 10:45:05;;;;;;;48.35;29.48;;;;;;;-144.47;100.00;61586.06;5047980;28;20104;-86
2022/01/05 10:47:33;;;;;;;49.88;30.52;;;;;;;-144.47;100.00;61586.06;5038897;28;20216;-83
2022/01/05 10:49:59;;;;;;;49.83;28.95;;;;;;;-144.47;100.00;61586.06;5022655;28;20041;-84
2022/01/05 10:52:30;;;;;;;50.00;29.33;;;;;;;-144.47;100.00;61586.06;5034536;28;20041;-83
2022/01/05 10:55:09;;;;;;;50.50;29.42;;;;;;;-144.47;100.00;61586.06;5028544;28;20105;-84
2022/01/05 10:57:35;;;;;;;49.13;31.38;;;;;;;-144.47;100.00;61586.06;5023056;28;20030;-83